Terminal Aerodrome Forecast
Issued by NWS Tuscon, AZ

Home | Current Version | Previous Version | Text Only | Print | Product List | Glossary On
Versions: 1 2 3 4 5 6 7 8 9 10 11 12 13 14 15 16 17 18 19 20 21 22 23 24 25 26
000
FTUS45 KTWC 161127
TAFDUG
TAF
KDUG 161127Z 1612/1712 16006KT P6SM FEW250
     FM162000 22012G18KT P6SM FEW250
     FM170300 19007KT P6SM SCT250
     FM170700 11005KT P6SM SCT250=

USA.gov is the U.S. government's official web portal to all federal, state and local government web resources and services.